Algoa — ZR4311 — position and weather

sailwx.info

Track history (hours):
 
Tides and Currents Weather Stations Pressure Air Temp Water Temp Dewpoint Dewpoint Depression Visibility Wind Speed Wind Dir Waves Ship Positions

Oceanographic research ship Algoa (South Africa)

Detailed information on ship capabilities available from University of Delaware's Ocean Information Center.

Last reported at 2016-Aug-25 01:33 UTC. Time now 2016-Aug-26 17:33 UTC.
Position S 29°51' E 015°14'.

Type: Other ship. MMSI: 599996424.

Date/timePositionNaut miles runAvg speedWind from/ knotsBaromVisibWave heightAir tempDewpointWater temp
2016-Aug-25 01:33S 29°51' E 015°14'8 4.2
2016-Aug-24 23:33S 29°49' E 015°24'9 8.8
2016-Aug-24 22:31S 29°46' E 015°34'9 9.1
2016-Aug-24 21:33S 29°43' E 015°43'10 9.0
2016-Aug-24 20:28S 29°40' E 015°54'250 5.1
2016-Aug-22 19:08S 33°23' E 018°06'10 6.2
2016-Aug-22 17:28S 33°31' E 018°13'6 6.4
2016-Aug-22 16:32S 33°36' E 018°16'9 9.6
2016-Aug-22 15:34S 33°44' E 018°22'8 8.4
2016-Aug-22 14:33S 33°52' E 018°26'2 1.6
2016-Aug-22 13:34S 33°54' E 018°27'  
2016-Aug-18 13:33S 33°55' E 018°27'0 0.0
2016-Aug-18 12:33S 33°55' E 018°27'0 0.0
2016-Aug-18 11:34S 33°55' E 018°27'0 0.0
2016-Aug-18 10:34S 33°55' E 018°27'0 0.0
2016-Aug-18 09:33S 33°55' E 018°27'0 0.0
2016-Aug-18 08:34S 33°55' E 018°27'0 0.0
2016-Aug-18 07:34S 33°55' E 018°27'0 0.0
2016-Aug-18 06:34S 33°55' E 018°27'0 0.0
2016-Aug-18 05:33S 33°55' E 018°27'0 0.0
2016-Aug-18 04:33S 33°55' E 018°27'0 0.0
2016-Aug-18 03:34S 33°55' E 018°27'0 0.0
2016-Aug-18 02:33S 33°55' E 018°27'0 0.0
2016-Aug-18 01:34S 33°55' E 018°27'0 0.0
2016-Aug-18 00:34S 33°55' E 018°27'0 0.0
2016-Aug-17 23:34S 33°55' E 018°27'0 0.0
2016-Aug-17 22:33S 33°55' E 018°27'0 0.0
2016-Aug-16 04:34S 33°55' E 018°27'0 0.0
2016-Aug-16 03:34S 33°55' E 018°27'0 0.0
2016-Aug-16 02:33S 33°55' E 018°27'0 0.0
2016-Aug-16 01:33S 33°55' E 018°27'0 0.0
2016-Aug-16 00:34S 33°55' E 018°27'0 0.0
2016-Aug-15 23:33S 33°55' E 018°27'0 0.0
2016-Aug-15 22:34S 33°55' E 018°27'0 0.0
2016-Aug-15 21:33S 33°55' E 018°27'0 0.0
2016-Aug-15 20:33S 33°55' E 018°27'0 0.0
2016-Aug-15 19:33S 33°55' E 018°27'0 0.0
2016-Aug-15 18:33S 33°55' E 018°27'0 0.0
2016-Aug-15 17:33S 33°55' E 018°27'0 0.0
2016-Aug-15 16:34S 33°55' E 018°27'0 0.0
2016-Aug-15 15:34S 33°55' E 018°27'0 0.0
2016-Aug-15 14:33S 33°55' E 018°27'0 0.0
2016-Aug-15 13:33S 33°55' E 018°27'0 0.0
2016-Aug-15 12:33S 33°55' E 018°27'0 0.0
2016-Aug-15 11:33S 33°55' E 018°27'0 0.0
2016-Aug-15 08:33S 33°55' E 018°27'0 0.0
2016-Aug-15 07:34S 33°55' E 018°27'0 0.0
2016-Aug-15 06:34S 33°55' E 018°27'  
Track history (hours):
 
Tides and Currents Weather Stations Pressure Air Temp Water Temp Dewpoint Dewpoint Depression Visibility Wind Speed Wind Dir Waves Ship Positions

Oceanographic research ship Algoa (South Africa)

Detailed information on ship capabilities available from University of Delaware's Ocean Information Center.

Last reported at 2016-Aug-25 01:33 UTC. Time now 2016-Aug-26 17:33 UTC.
Position S 29°51' E 015°14'.

Type: Other ship. MMSI: 599996424.

Date/timePositionNaut miles runAvg speedWind from/ knotsBaromVisibWave heightAir tempDewpointWater temp
2016-Aug-25 01:33S 29°51' E 015°14'8 4.2
2016-Aug-24 23:33S 29°49' E 015°24'9 8.8
2016-Aug-24 22:31S 29°46' E 015°34'9 9.1
2016-Aug-24 21:33S 29°43' E 015°43'10 9.0
2016-Aug-24 20:28S 29°40' E 015°54'250 5.1
2016-Aug-22 19:08S 33°23' E 018°06'10 6.2
2016-Aug-22 17:28S 33°31' E 018°13'6 6.4
2016-Aug-22 16:32S 33°36' E 018°16'9 9.6
2016-Aug-22 15:34S 33°44' E 018°22'8 8.4
2016-Aug-22 14:33S 33°52' E 018°26'2 1.6
2016-Aug-22 13:34S 33°54' E 018°27'  
2016-Aug-18 13:33S 33°55' E 018°27'0 0.0
2016-Aug-18 12:33S 33°55' E 018°27'0 0.0
2016-Aug-18 11:34S 33°55' E 018°27'0 0.0
2016-Aug-18 10:34S 33°55' E 018°27'0 0.0
2016-Aug-18 09:33S 33°55' E 018°27'0 0.0
2016-Aug-18 08:34S 33°55' E 018°27'0 0.0
2016-Aug-18 07:34S 33°55' E 018°27'0 0.0
2016-Aug-18 06:34S 33°55' E 018°27'0 0.0
2016-Aug-18 05:33S 33°55' E 018°27'0 0.0
2016-Aug-18 04:33S 33°55' E 018°27'0 0.0
2016-Aug-18 03:34S 33°55' E 018°27'0 0.0
2016-Aug-18 02:33S 33°55' E 018°27'0 0.0
2016-Aug-18 01:34S 33°55' E 018°27'0 0.0
2016-Aug-18 00:34S 33°55' E 018°27'0 0.0
2016-Aug-17 23:34S 33°55' E 018°27'0 0.0
2016-Aug-17 22:33S 33°55' E 018°27'0 0.0
2016-Aug-16 04:34S 33°55' E 018°27'0 0.0
2016-Aug-16 03:34S 33°55' E 018°27'0 0.0
2016-Aug-16 02:33S 33°55' E 018°27'0 0.0
2016-Aug-16 01:33S 33°55' E 018°27'0 0.0
2016-Aug-16 00:34S 33°55' E 018°27'0 0.0
2016-Aug-15 23:33S 33°55' E 018°27'0 0.0
2016-Aug-15 22:34S 33°55' E 018°27'0 0.0
2016-Aug-15 21:33S 33°55' E 018°27'0 0.0
2016-Aug-15 20:33S 33°55' E 018°27'0 0.0
2016-Aug-15 19:33S 33°55' E 018°27'0 0.0
2016-Aug-15 18:33S 33°55' E 018°27'0 0.0
2016-Aug-15 17:33S 33°55' E 018°27'0 0.0
2016-Aug-15 16:34S 33°55' E 018°27'0 0.0
2016-Aug-15 15:34S 33°55' E 018°27'0 0.0
2016-Aug-15 14:33S 33°55' E 018°27'0 0.0
2016-Aug-15 13:33S 33°55' E 018°27'0 0.0
2016-Aug-15 12:33S 33°55' E 018°27'0 0.0
2016-Aug-15 11:33S 33°55' E 018°27'0 0.0
2016-Aug-15 08:33S 33°55' E 018°27'0 0.0
2016-Aug-15 07:34S 33°55' E 018°27'0 0.0
2016-Aug-15 06:34S 33°55' E 018°27'  

Dump ship's entire track history